DLH230 EDDV-EDDH
Flight info
| Callsign | DLH230 |
|---|---|
| Flight time | 0h 22m |
| Altitude | 17000 |
| Route | CEL7Y CEL Q282 DIRBO/N0399F190 T902 RARUP RARUP3D |
| Aircraft | A320/M-SDE3FGHIRWY/LB1 |
Departure
| Time | 2026-05-01 12:36 |
|---|---|
| Airport | Hannover Airport (EDDV) |
Arrival
| Time | 2026-05-01 12:58 |
|---|---|
| Airport | Hamburg Helmut Schmidt Airport (EDDH) |
| Time | Latitude | Longitude | Altitude | Speed | Heading |
|---|---|---|---|---|---|
| 2026-05-01 12:07 | 52.45838 | 9.69311 | 180 ft | 0 kts | 47° |
| 2026-05-01 12:13 | 52.45838 | 9.69310 | 179 ft | 0 kts | 47° |
| 2026-05-01 12:27 | 52.45836 | 9.69307 | 179 ft | 3 kts | 47° |
| 2026-05-01 12:27 | 52.45793 | 9.69262 | 179 ft | 4 kts | 6° |
| 2026-05-01 12:28 | 52.45761 | 9.69283 | 179 ft | 0 kts | 271° |
| 2026-05-01 12:31 | 52.45761 | 9.69241 | 179 ft | 6 kts | 268° |
| 2026-05-01 12:32 | 52.45736 | 9.69174 | 179 ft | 10 kts | 198° |
| 2026-05-01 12:32 | 52.45626 | 9.69002 | 181 ft | 13 kts | 271° |
| 2026-05-01 12:32 | 52.45629 | 9.68872 | 182 ft | 10 kts | 272° |
| 2026-05-01 12:33 | 52.45631 | 9.68775 | 183 ft | 8 kts | 273° |
| 2026-05-01 12:33 | 52.45636 | 9.68589 | 182 ft | 21 kts | 274° |
| 2026-05-01 12:33 | 52.45644 | 9.68338 | 183 ft | 22 kts | 271° |
| 2026-05-01 12:33 | 52.45653 | 9.68102 | 182 ft | 21 kts | 272° |
| 2026-05-01 12:34 | 52.45657 | 9.67875 | 181 ft | 19 kts | 272° |
| 2026-05-01 12:34 | 52.45602 | 9.67711 | 182 ft | 17 kts | 203° |
| 2026-05-01 12:34 | 52.45503 | 9.67765 | 181 ft | 12 kts | 122° |
| 2026-05-01 12:34 | 52.45495 | 9.67816 | 181 ft | 0 kts | 95° |
| 2026-05-01 12:35 | 52.45486 | 9.68099 | 180 ft | 62 kts | 92° |
| 2026-05-01 12:35 | 52.45457 | 9.69166 | 198 ft | 123 kts | 92° |
| 2026-05-01 12:35 | 52.45415 | 9.70823 | 327 ft | 157 kts | 91° |
| 2026-05-01 12:36 | 52.45398 | 9.72600 | 1007 ft | 160 kts | 93° |
| 2026-05-01 12:36 | 52.45396 | 9.74463 | 1522 ft | 172 kts | 89° |
| 2026-05-01 12:36 | 52.45353 | 9.76543 | 1868 ft | 194 kts | 96° |
| 2026-05-01 12:36 | 52.45263 | 9.78833 | 2422 ft | 206 kts | 96° |
| 2026-05-01 12:37 | 52.45172 | 9.81198 | 3206 ft | 209 kts | 96° |
| 2026-05-01 12:37 | 52.45086 | 9.83590 | 4032 ft | 212 kts | 96° |
| 2026-05-01 12:37 | 52.45002 | 9.86019 | 4867 ft | 215 kts | 96° |
| 2026-05-01 12:37 | 52.44924 | 9.88482 | 5706 ft | 218 kts | 94° |
| 2026-05-01 12:38 | 52.45206 | 9.90957 | 6499 ft | 228 kts | 69° |
| 2026-05-01 12:38 | 52.46201 | 9.93113 | 7063 ft | 253 kts | 41° |
| 2026-05-01 12:38 | 52.47838 | 9.94564 | 7462 ft | 280 kts | 27° |
| 2026-05-01 12:38 | 52.49644 | 9.95914 | 8192 ft | 289 kts | 27° |
| 2026-05-01 12:39 | 52.51491 | 9.97286 | 9057 ft | 294 kts | 27° |
| 2026-05-01 12:39 | 52.53368 | 9.98691 | 9909 ft | 299 kts | 28° |
| 2026-05-01 12:39 | 52.55341 | 9.99864 | 10266 ft | 305 kts | 12° |
| 2026-05-01 12:39 | 52.57485 | 9.99871 | 10363 ft | 320 kts | 355° |
| 2026-05-01 12:40 | 52.59791 | 9.99390 | 10379 ft | 346 kts | 354° |
| 2026-05-01 12:40 | 52.62278 | 9.98834 | 10382 ft | 369 kts | 353° |
| 2026-05-01 12:40 | 52.64814 | 9.98253 | 10382 ft | 372 kts | 353° |
| 2026-05-01 12:40 | 52.67360 | 9.97668 | 10385 ft | 374 kts | 353° |
| 2026-05-01 12:41 | 52.69957 | 9.97081 | 11011 ft | 381 kts | 354° |
| 2026-05-01 12:41 | 52.72570 | 9.96500 | 11755 ft | 385 kts | 354° |
| 2026-05-01 12:41 | 52.75272 | 9.95906 | 12527 ft | 390 kts | 354° |
| 2026-05-01 12:41 | 52.77974 | 9.95315 | 13275 ft | 394 kts | 354° |
| 2026-05-01 12:42 | 52.80666 | 9.94728 | 14018 ft | 397 kts | 354° |
| 2026-05-01 12:42 | 52.83423 | 9.94123 | 14700 ft | 401 kts | 354° |
| 2026-05-01 12:42 | 52.86207 | 9.93507 | 15357 ft | 404 kts | 353° |
| 2026-05-01 12:42 | 52.88998 | 9.92887 | 16029 ft | 407 kts | 353° |
| 2026-05-01 12:43 | 52.91818 | 9.92258 | 16693 ft | 409 kts | 353° |
| 2026-05-01 12:43 | 52.94644 | 9.91624 | 17202 ft | 412 kts | 353° |
| 2026-05-01 12:43 | 52.97484 | 9.90984 | 17353 ft | 414 kts | 353° |
| 2026-05-01 12:43 | 53.00401 | 9.90333 | 17386 ft | 432 kts | 353° |
| 2026-05-01 12:44 | 53.03426 | 9.89657 | 17383 ft | 443 kts | 353° |
| 2026-05-01 12:44 | 53.06500 | 9.88970 | 17381 ft | 445 kts | 353° |
| 2026-05-01 12:44 | 53.12566 | 9.87615 | 17377 ft | 424 kts | 353° |
| 2026-05-01 12:45 | 53.18291 | 9.86323 | 17378 ft | 412 kts | 353° |
| 2026-05-01 12:45 | 53.21129 | 9.85687 | 17377 ft | 411 kts | 353° |
| 2026-05-01 12:45 | 53.23971 | 9.85049 | 17377 ft | 411 kts | 353° |
| 2026-05-01 12:46 | 53.26806 | 9.84409 | 17378 ft | 411 kts | 353° |
| 2026-05-01 12:46 | 53.29646 | 9.83762 | 17376 ft | 411 kts | 353° |
| 2026-05-01 12:46 | 53.32442 | 9.83121 | 17369 ft | 412 kts | 353° |
| 2026-05-01 12:46 | 53.35319 | 9.82464 | 16879 ft | 415 kts | 353° |
| 2026-05-01 12:47 | 53.38164 | 9.81819 | 16379 ft | 410 kts | 353° |
| 2026-05-01 12:47 | 53.40978 | 9.81181 | 15827 ft | 406 kts | 353° |
| 2026-05-01 12:47 | 53.43781 | 9.80546 | 15267 ft | 405 kts | 353° |
| 2026-05-01 12:47 | 53.46567 | 9.79911 | 14713 ft | 403 kts | 353° |
| 2026-05-01 12:48 | 53.49340 | 9.79275 | 14166 ft | 401 kts | 353° |
| 2026-05-01 12:48 | 53.52098 | 9.78643 | 13568 ft | 399 kts | 353° |
| 2026-05-01 12:48 | 53.54842 | 9.78011 | 12973 ft | 397 kts | 353° |
| 2026-05-01 12:48 | 53.57570 | 9.77381 | 12380 ft | 394 kts | 353° |
| 2026-05-01 12:49 | 53.60238 | 9.76764 | 12008 ft | 386 kts | 353° |
| 2026-05-01 12:49 | 53.62853 | 9.76162 | 11802 ft | 374 kts | 353° |
| 2026-05-01 12:49 | 53.65460 | 9.75567 | 11228 ft | 373 kts | 353° |
| 2026-05-01 12:49 | 53.68025 | 9.74977 | 10668 ft | 371 kts | 352° |
| 2026-05-01 12:50 | 53.70613 | 9.73968 | 10115 ft | 387 kts | 345° |
| 2026-05-01 12:50 | 53.73165 | 9.72736 | 9500 ft | 373 kts | 344° |
| 2026-05-01 12:50 | 53.75563 | 9.71564 | 8923 ft | 355 kts | 344° |
| 2026-05-01 12:50 | 53.77885 | 9.70430 | 8349 ft | 340 kts | 344° |
| 2026-05-01 12:51 | 53.80112 | 9.69344 | 7848 ft | 325 kts | 344° |
| 2026-05-01 12:51 | 53.82213 | 9.68458 | 7657 ft | 300 kts | 355° |
| 2026-05-01 12:51 | 53.85885 | 9.70546 | 6676 ft | 281 kts | 49° |
| 2026-05-01 12:52 | 53.86855 | 9.73327 | 6084 ft | 273 kts | 78° |
| 2026-05-01 12:52 | 53.86056 | 9.79142 | 4803 ft | 258 kts | 135° |
| 2026-05-01 12:52 | 53.84613 | 9.80842 | 4277 ft | 248 kts | 154° |
| 2026-05-01 12:53 | 53.81714 | 9.83368 | 3626 ft | 222 kts | 153° |
| 2026-05-01 12:53 | 53.80375 | 9.84539 | 3340 ft | 210 kts | 153° |
| 2026-05-01 12:53 | 53.79134 | 9.85621 | 3069 ft | 193 kts | 152° |
| 2026-05-01 12:54 | 53.77984 | 9.86623 | 2850 ft | 177 kts | 152° |
| 2026-05-01 12:54 | 53.75899 | 9.88440 | 2381 ft | 166 kts | 153° |
| 2026-05-01 12:54 | 53.74874 | 9.89332 | 2163 ft | 164 kts | 153° |
| 2026-05-01 12:55 | 53.72861 | 9.91081 | 1714 ft | 154 kts | 152° |
| 2026-05-01 12:55 | 53.71958 | 9.91866 | 1507 ft | 142 kts | 152° |
| 2026-05-01 12:55 | 53.71102 | 9.92610 | 1330 ft | 136 kts | 152° |
| 2026-05-01 12:56 | 53.70260 | 9.93342 | 1149 ft | 135 kts | 164° |
| 2026-05-01 12:56 | 53.69419 | 9.94063 | 962 ft | 135 kts | 151° |
| 2026-05-01 12:56 | 53.68591 | 9.94810 | 785 ft | 134 kts | 153° |
| 2026-05-01 12:56 | 53.67761 | 9.95505 | 637 ft | 134 kts | 153° |
| 2026-05-01 12:57 | 53.66941 | 9.96230 | 375 ft | 133 kts | 152° |
| 2026-05-01 12:57 | 53.65306 | 9.97643 | 87 ft | 132 kts | 153° |
| 2026-05-01 12:57 | 53.64568 | 9.98279 | 52 ft | 91 kts | 154° |
| 2026-05-01 12:58 | 53.64241 | 9.98559 | 53 ft | 30 kts | 153° |
| 2026-05-01 12:58 | 53.64061 | 9.98726 | 51 ft | 30 kts | 144° |
| 2026-05-01 12:58 | 53.63919 | 9.98983 | 50 ft | 25 kts | 127° |
| 2026-05-01 12:59 | 53.63869 | 9.99100 | 50 ft | 8 kts | 125° |
| 2026-05-01 12:59 | 53.63848 | 9.99149 | 49 ft | 0 kts | 125° |
| 2026-05-01 12:59 | 53.63790 | 9.99291 | 50 ft | 15 kts | 129° |
| 2026-05-01 13:00 | 53.63648 | 9.99614 | 51 ft | 19 kts | 125° |
| 2026-05-01 13:00 | 53.63615 | 9.99692 | 51 ft | 0 kts | 126° |
| 2026-05-01 13:07 | 53.63207 | 10.00365 | 51 ft | 0 kts | 84° |